TimeCST,TemperatureF,Dew PointF,Humidity,Sea Level PressureIn,VisibilityMPH,Wind Direction,Wind SpeedMPH,Gust SpeedMPH,PrecipitationIn,Events,Conditions,WindDirDegrees,DateUTC
12:13 AM,50.0,48.2,94,30.27,10.0,North,3.5,-,N/A,,Mostly Cloudy,350,2012-11-30 06:13:00
12:44 AM,50.0,48.2,94,30.27,10.0,North,3.5,-,N/A,,Scattered Clouds,360,2012-11-30 06:44:00
12:56 AM,48.9,46.9,93,30.27,10.0,Calm,Calm,-,N/A,,Clear,0,2012-11-30 06:56:00
1:56 AM,50.0,48.0,93,30.28,10.0,North,4.6,-,N/A,,Scattered Clouds,10,2012-11-30 07:56:00
2:56 AM,50.0,48.0,93,30.27,10.0,NE,5.8,-,N/A,,Partly Cloudy,40,2012-11-30 08:56:00
3:56 AM,51.1,48.0,89,30.26,10.0,ENE,6.9,-,N/A,,Clear,60,2012-11-30 09:56:00
4:56 AM,50.0,48.0,93,30.27,10.0,NE,4.6,-,N/A,,Clear,40,2012-11-30 10:56:00
5:56 AM,51.1,48.9,92,30.28,10.0,NE,5.8,-,N/A,,Mostly Cloudy,40,2012-11-30 11:56:00
6:56 AM,53.1,51.1,93,30.28,10.0,ENE,8.1,-,N/A,,Mostly Cloudy,60,2012-11-30 12:56:00
7:56 AM,55.9,53.1,90,30.29,10.0,ENE,8.1,-,N/A,,Mostly Cloudy,60,2012-11-30 13:56:00
8:56 AM,59.0,55.0,87,30.29,10.0,ENE,10.4,-,N/A,,Scattered Clouds,60,2012-11-30 14:56:00
9:56 AM,63.0,57.0,81,30.30,10.0,East,8.1,-,N/A,,Scattered Clouds,80,2012-11-30 15:56:00
10:56 AM,64.9,59.0,81,30.29,10.0,ENE,8.1,-,N/A,,Mostly Cloudy,60,2012-11-30 16:56:00
11:56 AM,66.9,59.0,76,30.26,10.0,ENE,10.4,-,N/A,,Mostly Cloudy,60,2012-11-30 17:56:00
12:56 PM,66.0,57.9,75,30.23,10.0,ENE,8.1,-,N/A,,Mostly Cloudy,70,2012-11-30 18:56:00
1:56 PM,64.9,57.9,78,30.22,10.0,ENE,6.9,-,N/A,,Mostly Cloudy,60,2012-11-30 19:56:00
2:56 PM,64.9,59.0,81,30.21,10.0,ENE,6.9,-,N/A,,Mostly Cloudy,60,2012-11-30 20:56:00
3:56 PM,64.9,60.1,84,30.22,10.0,NE,4.6,-,N/A,,Mostly Cloudy,50,2012-11-30 21:56:00
4:56 PM,64.9,60.1,84,30.22,10.0,ENE,4.6,-,0.00,Rain,Light Rain,70,2012-11-30 22:56:00
5:56 PM,64.0,61.0,90,30.22,10.0,ENE,4.6,-,0.00,,Mostly Cloudy,70,2012-11-30 23:56:00
6:56 PM,64.0,60.1,87,30.23,10.0,East,4.6,-,N/A,,Mostly Cloudy,80,2012-12-01 00:56:00
7:56 PM,61.0,59.0,93,30.24,10.0,ENE,4.6,-,N/A,,Mostly Cloudy,70,2012-12-01 01:56:00
8:56 PM,61.0,57.9,90,30.24,10.0,ENE,4.6,-,N/A,,Mostly Cloudy,70,2012-12-01 02:56:00
9:56 PM,61.0,59.0,93,30.24,10.0,ENE,3.5,-,N/A,,Mostly Cloudy,70,2012-12-01 03:56:00
10:56 PM,61.0,59.0,93,30.24,10.0,East,4.6,-,N/A,,Overcast,80,2012-12-01 04:56:00
11:56 PM,61.0,59.0,93,30.23,10.0,Calm,Calm,-,N/A,,Overcast,0,2012-12-01 05:56:00